Snook, Texas
Current Conditions -  °F | °C
As of 3:53 PM on Friday 31 Oct 2014 (Local Time) from KCLL Reporting Station
Clear Clear  
Wind Chill: 23°   Ceiling: Unl
Heat Index: 23°   Visibility: 10mi
Dew Point:   Wind: 18mph
Humidity: 29%   Direction: 360°N
Pressure: 30.2"   Gusts: 26mph
Location:  30.49°N, 96.46°W
Report Text: KCLL 312053Z 36016G23KT 10SM CLR 23/04 A3020 RMK AO2 SLP223 T02330044 56016
Loading
Personal Weather Stations






























Interactive Weather Map
Tropical Storm Tracking
New forecast layout! Learn more

10-Day Weather Forecast

Advertisements
Track Severe Weather on mobile